Stations météo

réclame
Mon MeteoGroup
Fuengirola, Espagne (8480): Température de l'air & dewpoint: 19.02.2018 00:00:00 - 25.02.2018 00:00:00 (CET)Fuengirola, Espagne (8480): Vitesse du vent & gusts: 19.02.2018 00:00:00 - 25.02.2018 00:00:00 (CET)Fuengirola, Espagne (8480): Direction du vent: 19.02.2018 00:00:00 - 25.02.2018 00:00:00 (CET)Fuengirola, Espagne (8480): Quantités de précipitations: 19.02.2018 00:00:00 - 25.02.2018 00:00:00 (CET)
Date & Time tt [°C] td [°C] ff [km/h] ff [knt] fx [km/h] fx [knt] dd rr [mm]
25.02.2018 00:00:00 - - - - - - - -
24.02.2018 23:00:00 13,5 10,1 0 0 8 5 NW 0,0
24.02.2018 22:00:00 13,3 9,7 3 2 5 3 N 0,0
24.02.2018 21:00:00 13,6 10,0 3 1 6 3 SSE 0,0
24.02.2018 20:00:00 13,7 10,1 1 0 6 4 SW 0,0
24.02.2018 19:00:00 13,6 10,0 0 0 6 3 N -
24.02.2018 18:00:00 13,7 10,1 3 1 11 6 S 0,0
24.02.2018 17:00:00 13,7 10,1 7 4 14 7 S 0,0
24.02.2018 16:00:00 13,8 10,2 11 6 19 10 SSE 0,0
24.02.2018 15:00:00 14,3 10,3 12 7 20 11 SE 0,0
24.02.2018 14:00:00 15,0 11,0 13 7 20 11 SE 0,0
24.02.2018 13:00:00 14,1 10,1 12 7 19 11 SE -
24.02.2018 12:00:00 13,7 9,9 13 7 21 12 ESE 0,0
24.02.2018 11:00:00 13,3 9,7 16 9 27 14 ESE 0,0
24.02.2018 10:00:00 13,3 9,7 20 11 31 17 ESE 0,0
24.02.2018 09:00:00 13,1 9,5 20 11 31 17 ESE 0,0
24.02.2018 08:00:00 13,1 9,7 22 12 29 16 SE 0,0
24.02.2018 07:00:00 13,2 9,6 20 11 28 15 ESE -
24.02.2018 06:00:00 13,2 9,6 19 10 58 31 ESE 0,0
24.02.2018 05:00:00 13,4 10,2 21 11 30 16 ESE 0,0
24.02.2018 04:00:00 13,4 10,2 21 12 32 17 ESE 0,0
24.02.2018 03:00:00 13,6 10,4 24 13 32 17 ESE 0,0
24.02.2018 02:00:00 13,7 10,5 25 14 34 18 ESE 0,0
24.02.2018 01:00:00 13,6 10,4 22 12 32 18 ESE -
24.02.2018 00:00:00 13,8 10,6 23 13 34 18 ESE 0,0
23.02.2018 23:00:00 13,8 10,8 23 13 37 20 SE 0,0
23.02.2018 22:00:00 13,7 10,7 22 12 29 16 ESE 0,0
23.02.2018 21:00:00 13,9 10,7 20 11 27 14 ESE 0,0
23.02.2018 20:00:00 14,0 10,8 20 11 26 14 ESE 0,0
23.02.2018 19:00:00 14,3 10,3 17 9 22 12 ESE -
23.02.2018 18:00:00 14,5 10,1 15 8 20 11 ESE 0,0
23.02.2018 17:00:00 15,1 10,5 14 8 21 12 ESE 0,0
23.02.2018 16:00:00 15,9 10,9 15 8 22 12 ESE 0,0
23.02.2018 15:00:00 16,0 10,5 15 8 22 12 ESE 0,0
23.02.2018 14:00:00 15,5 9,8 14 8 23 12 ESE 0,0
23.02.2018 13:00:00 15,1 8,6 12 7 22 12 ESE -
23.02.2018 12:00:00 15,0 8,7 15 8 24 13 ESE 0,0
23.02.2018 11:00:00 14,2 6,6 10 5 16 9 ESE 0,0
23.02.2018 10:00:00 12,6 3,6 3 2 11 6 WNW 0,0
23.02.2018 09:00:00 11,4 1,9 8 4 12 7 NW 0,0
23.02.2018 08:00:00 11,0 1,6 8 4 18 10 NW 0,0
23.02.2018 07:00:00 11,8 1,7 8 4 27 15 WNW -
23.02.2018 06:00:00 11,8 1,5 8 4 22 12 W 0,0
23.02.2018 05:00:00 13,2 2,2 2 1 23 12 WNW 0,0
23.02.2018 04:00:00 13,3 2,6 2 1 14 7 N 0,0
23.02.2018 03:00:00 13,0 1,7 5 3 14 7 WNW 0,0
23.02.2018 02:00:00 12,8 1,5 5 3 16 9 NW 0,0
23.02.2018 01:00:00 13,2 2,2 5 3 11 6 W -
23.02.2018 00:00:00 13,8 2,4 2 1 21 11 W 0,0
22.02.2018 23:00:00 14,2 3,4 5 3 17 9 W 0,0
22.02.2018 22:00:00 15,1 3,6 3 2 27 14 W 0,0
22.02.2018 21:00:00 14,9 3,4 4 2 17 9 SW 0,0
22.02.2018 20:00:00 15,4 3,6 6 4 13 7 NNW 0,0
22.02.2018 19:00:00 15,5 11,5 1 0 11 6 S -
22.02.2018 18:00:00 15,5 11,1 3 2 19 10 SW 0,0
22.02.2018 17:00:00 15,2 11,0 6 3 27 15 WSW 0,0
22.02.2018 16:00:00 14,4 10,4 12 6 29 16 SW 0,0
22.02.2018 15:00:00 14,1 9,9 5 3 31 17 SW 0,0
22.02.2018 14:00:00 13,8 10,2 13 7 27 15 SSW 0,0
22.02.2018 13:00:00 13,7 10,7 13 7 18 10 SSW -
22.02.2018 12:00:00 13,5 9,7 5 3 8 4 S 0,0
22.02.2018 11:00:00 12,8 9,6 1 0 8 5 SSE 0,0
22.02.2018 10:00:00 12,0 8,7 6 3 13 7 NE 0,0
22.02.2018 09:00:00 11,7 8,9 5 3 22 12 E 0,0
22.02.2018 08:00:00 11,5 8,2 14 8 22 12 E 0,0
22.02.2018 07:00:00 10,4 6,6 8 4 17 9 WNW -
22.02.2018 06:00:00 10,9 6,8 7 4 13 7 WNW 0,0
22.02.2018 05:00:00 11,0 6,6 6 4 14 7 NW 0,0
22.02.2018 04:00:00 10,8 6,0 8 4 15 8 WNW 0,0
22.02.2018 03:00:00 12,3 7,6 4 2 14 7 NW 0,0
22.02.2018 02:00:00 13,5 10,1 13 7 19 11 ESE 0,0
22.02.2018 01:00:00 14,0 10,8 16 8 21 11 ESE -
22.02.2018 00:00:00 14,5 9,7 14 8 29 15 E 0,0
21.02.2018 23:00:00 15,1 2,0 9 5 30 16 NNW 0,0
21.02.2018 22:00:00 15,5 2,7 10 5 32 18 N 0,0
21.02.2018 21:00:00 16,0 3,5 15 8 38 21 NNE 0,0
21.02.2018 20:00:00 16,4 4,8 16 9 32 17 NNE 0,0
21.02.2018 19:00:00 17,3 4,6 17 9 36 20 NNE -
21.02.2018 18:00:00 18,2 5,1 14 7 38 20 N 0,0
21.02.2018 17:00:00 18,4 4,9 19 10 50 27 N 0,0
21.02.2018 16:00:00 19,3 5,0 19 10 40 21 N 0,0
21.02.2018 15:00:00 19,6 5,3 10 5 36 20 NNE 0,0
21.02.2018 14:00:00 19,3 5,4 6 4 27 15 N 0,0
21.02.2018 13:00:00 18,6 5,1 7 4 35 19 NNW -
21.02.2018 12:00:00 18,0 4,9 3 2 46 25 N 0,0
21.02.2018 11:00:00 17,8 4,7 10 5 43 23 NNE 0,0
21.02.2018 10:00:00 17,6 4,6 13 7 34 19 N 0,0
21.02.2018 09:00:00 16,7 6,0 5 3 29 16 ESE 0,0
21.02.2018 08:00:00 15,7 7,2 4 2 35 19 NW 0,0
21.02.2018 07:00:00 16,3 7,8 8 4 27 15 NW -
21.02.2018 06:00:00 16,2 7,9 6 3 21 12 W 0,0
21.02.2018 05:00:00 16,5 8,0 10 5 25 14 NW 0,0
21.02.2018 04:00:00 17,8 8,7 7 4 25 13 NW 0,0
21.02.2018 03:00:00 17,4 8,8 3 2 15 8 WSW 0,0
21.02.2018 02:00:00 17,6 8,7 3 2 25 14 W 0,0
21.02.2018 01:00:00 17,5 8,6 2 1 22 12 W -
21.02.2018 00:00:00 17,1 8,8 3 1 13 7 W 0,0
20.02.2018 23:00:00 17,8 9,2 3 1 14 8 WSW 0,0
20.02.2018 22:00:00 17,9 9,8 2 1 14 8 SW 0,0
20.02.2018 21:00:00 18,2 10,1 2 1 18 10 SW 0,0
20.02.2018 20:00:00 18,9 9,1 9 5 21 11 NW 0,0
20.02.2018 19:00:00 17,3 12,8 4 2 16 9 WSW -
20.02.2018 18:00:00 17,1 13,6 4 2 22 12 WSW 0,0
20.02.2018 17:00:00 16,9 13,8 6 3 28 15 WSW 0,0
20.02.2018 16:00:00 15,7 13,9 8 4 30 16 WSW 0,0
20.02.2018 15:00:00 16,0 13,7 9 5 29 16 SW 0,0
20.02.2018 14:00:00 15,9 13,6 7 4 29 16 SW 0,0
20.02.2018 13:00:00 15,6 13,3 8 4 27 14 SW -
20.02.2018 12:00:00 15,5 13,3 11 6 20 11 SSW 0,0
20.02.2018 11:00:00 14,9 13,3 6 3 16 9 SSW 0,0
20.02.2018 10:00:00 12,4 11,0 4 2 14 8 WNW 0,0
20.02.2018 09:00:00 11,3 10,4 7 4 16 8 WNW 0,0
20.02.2018 08:00:00 11,1 10,2 7 4 15 8 NW 0,0
20.02.2018 07:00:00 11,3 10,2 9 5 16 9 W -
20.02.2018 06:00:00 11,8 10,7 8 4 14 7 WNW 0,0
20.02.2018 05:00:00 12,5 11,4 5 3 12 6 WNW 0,0
20.02.2018 04:00:00 13,1 11,8 4 2 8 4 NW 0,0
20.02.2018 03:00:00 13,7 12,4 2 1 9 5 WNW 0,0
20.02.2018 02:00:00 13,6 12,5 3 2 8 4 W 0,0
20.02.2018 01:00:00 13,5 12,6 1 1 7 4 NNW -
20.02.2018 00:00:00 13,7 12,6 4 2 9 5 NNW 0,0
19.02.2018 23:00:00 13,9 13,0 4 2 9 5 NNE 0,0
19.02.2018 22:00:00 14,7 13,7 3 2 10 5 E 0,0
19.02.2018 21:00:00 14,7 13,6 6 3 12 6 E 0,0
19.02.2018 20:00:00 14,9 13,6 4 2 6 3 E 0,0
19.02.2018 19:00:00 15,3 13,8 2 1 4 2 SE -
19.02.2018 18:00:00 15,8 14,2 3 2 9 5 SE 0,0
19.02.2018 17:00:00 16,4 14,6 5 3 9 5 SE 0,0
19.02.2018 16:00:00 16,2 14,6 6 3 12 6 SE 0,0
19.02.2018 15:00:00 16,0 14,4 7 4 10 5 SSE 0,0
19.02.2018 14:00:00 15,9 14,3 7 4 12 6 SE 0,0
19.02.2018 13:00:00 15,9 14,1 9 5 13 7 SE -
19.02.2018 12:00:00 15,9 14,3 5 3 8 5 SE 0,0
19.02.2018 11:00:00 14,9 13,4 2 1 4 2 S 0,0
19.02.2018 10:00:00 14,3 13,0 1 0 10 5 WNW 0,0
19.02.2018 09:00:00 13,9 12,8 4 2 8 4 WNW 0,0
19.02.2018 08:00:00 13,9 12,8 1 1 4 2 W 0,0
19.02.2018 07:00:00 13,9 12,8 2 1 6 3 WNW -
19.02.2018 06:00:00 14,1 12,8 5 3 11 6 WNW 0,0
19.02.2018 05:00:00 14,2 13,1 1 1 7 4 NW 0,0
19.02.2018 04:00:00 14,5 13,5 5 3 11 6 ENE 0,0
19.02.2018 03:00:00 14,7 13,7 5 3 11 6 E 0,0
19.02.2018 02:00:00 14,7 13,7 5 3 13 7 ENE 0,0
19.02.2018 01:00:00 14,8 13,5 6 3 11 6 E -
19.02.2018 00:00:00 14,6 13,5 8 4 13 7 NE 0,0

tt = Température de l'air
td = dewpoint
ff = Vitesse du vent
fx = gusts
dd = Direction du vent
rr = Quantités de précipitations

stations d'obs. à proximité